Portada
METAR-TAF:

METAR-TAF

Aeroports :

Tottori, Japó

latitud: 35-32N, longitud: 134-10E, altitud: 15 m

Observació

L'informe es va fer fa 8 hores i 24 minuts, a les 12:00 UTC
Vent 11 kt del Oest
Temperatura 14°C
Humitat 94%
Pressió 1005 hPa
Visibilitat: 8000 m
Escasses núvols a una alçada de 600 ft
Núvols disperses a una alçada de 1500 ft
Cel ennuvolat a una alçada de 5000 ft

METAR: RJOR 211200Z 27011KT 8000 FEW006 SCT015 BKN050 14/13 Q1005

Hora: 05:24 (20:24 UTC)


TAF: manca

Observacions i pronòstics meteorològics de més de 4000 aeroports (METAR i TAF).

Les estacions disponibles són els punts grocs i vermells al mapa.

Posi el ratolí al punt desitjat per veure el nom de l'estació.

Feu clic per veure les observacions i els pronòstics meteorològics.

Per canviar el mapa: feu clic els botons verds amb una creu de color negre per apropar; al botó verd amb un guió per allunyar la imatge; o en les fletxes verdes per a mapes adjacents.


METAR-TAF: